Time;durP1;ratioP1;P1;durP2;ratioP2;P2;SDS_P1;SDS_P2;PMS_P1;PMS_P2;Temp;Humidity;BMP_temperature;BMP_pressure;BME280_temperature;BME280_humidity;BME280_pressure;Samples;Min_cycle;Max_cycle;Signal;HPM_P1;HPM_P2
2022/07/15 00:02:06;;;;;;;7.38;1.73;;;;;;;;;;5079249;28;20131;-66
2022/07/15 00:04:33;;;;;;;9.55;2.25;;;;;;;;;;5081076;28;20077;-65
2022/07/15 00:07:01;;;;;;;10.85;2.17;;;;;;;;;;5073538;28;20056;-66
2022/07/15 00:12:10;;;;;;;9.52;1.73;;;;;;;;;;5078069;28;20105;-66
2022/07/15 00:14:38;;;;;;;9.00;1.92;;;;;;;;;;5079824;28;20044;-66
2022/07/15 00:17:06;;;;;;;8.27;1.40;;;;;;;;;;5078706;28;20116;-66
2022/07/15 00:19:33;;;;;;;7.00;1.38;;;;;;;;;;5081738;28;20118;-66
2022/07/15 00:22:01;;;;;;;7.68;1.60;;;;;;;;;;5084141;28;20665;-65
2022/07/15 00:24:29;;;;;;;6.55;1.60;;;;;;;;;;5085317;28;20066;-66
2022/07/15 00:26:56;;;;;;;8.30;1.92;;;;;;;;;;5081555;28;20048;-66
2022/07/15 00:29:25;;;;;;;6.85;1.33;;;;;;;;;;5080306;28;20131;-66
2022/07/15 00:31:52;;;;;;;5.80;1.02;;;;;;;;;;5085134;28;20148;-67
2022/07/15 00:34:19;;;;;;;11.02;2.00;;;;;;;;;;5078812;28;20109;-65
2022/07/15 00:36:47;;;;;;;9.43;1.70;;;;;;;;;;5080462;28;20052;-64
2022/07/15 00:39:14;;;;;;;7.47;1.40;;;;;;;;;;5078917;28;20765;-65
2022/07/15 00:41:43;;;;;;;4.30;1.30;;;;;;;;;;5079178;28;20040;-65
2022/07/15 00:44:10;;;;;;;8.20;1.08;;;;;;;;;;5080214;28;20113;-66
2022/07/15 00:46:39;;;;;;;9.43;1.45;;;;;;;;;;5079929;28;20735;-66
2022/07/15 00:49:08;;;;;;;7.18;1.48;;;;;;;;;;5083124;28;20516;-65
2022/07/15 00:51:36;;;;;;;6.95;1.23;;;;;;;;;;5081250;28;20557;-66
2022/07/15 00:54:04;;;;;;;7.85;1.40;;;;;;;;;;5077079;28;20044;-66
2022/07/15 00:56:32;;;;;;;5.90;1.23;;;;;;;;;;5082855;28;20085;-65
2022/07/15 00:59:00;;;;;;;6.57;1.40;;;;;;;;;;5084798;28;20064;-65
2022/07/15 01:01:28;;;;;;;7.80;1.00;;;;;;;;;;5082146;28;20097;-65
2022/07/15 01:03:57;;;;;;;5.78;1.05;;;;;;;;;;5084070;28;20059;-66
2022/07/15 01:06:26;;;;;;;3.97;0.80;;;;;;;;;;5072508;28;20048;-64
2022/07/15 01:08:53;;;;;;;6.80;1.08;;;;;;;;;;5071348;28;20733;-66
2022/07/15 01:11:21;;;;;;;5.47;0.90;;;;;;;;;;5078430;28;20066;-65
2022/07/15 01:13:48;;;;;;;2.20;0.55;;;;;;;;;;5077817;28;20109;-65
2022/07/15 01:16:15;;;;;;;3.60;0.65;;;;;;;;;;5079872;28;20052;-66
2022/07/15 01:18:42;;;;;;;2.50;0.50;;;;;;;;;;5079101;28;20104;-66
2022/07/15 01:21:11;;;;;;;5.57;0.93;;;;;;;;;;5078937;28;20690;-66
2022/07/15 01:23:42;;;;;;;3.67;0.47;;;;;;;;;;5086550;28;20089;-66
2022/07/15 01:26:09;;;;;;;4.97;0.88;;;;;;;;;;5086076;28;20058;-66
2022/07/15 01:28:36;;;;;;;5.03;0.98;;;;;;;;;;5073993;28;20105;-64
2022/07/15 01:31:04;;;;;;;4.97;0.77;;;;;;;;;;5079641;28;20113;-66
2022/07/15 01:33:31;;;;;;;3.67;0.60;;;;;;;;;;5073944;28;20109;-65
2022/07/15 01:35:59;;;;;;;3.60;0.60;;;;;;;;;;5073856;28;21048;-66
2022/07/15 01:38:27;;;;;;;3.97;0.60;;;;;;;;;;5075065;28;20052;-66
2022/07/15 01:40:55;;;;;;;6.22;0.70;;;;;;;;;;5079647;28;20121;-66
2022/07/15 01:43:22;;;;;;;6.45;0.70;;;;;;;;;;5081559;28;20059;-66
2022/07/15 01:45:49;;;;;;;2.47;0.57;;;;;;;;;;5083537;28;20149;-64
2022/07/15 01:50:57;;;;;;;2.20;0.63;;;;;;;;;;5084199;28;20051;-66
2022/07/15 01:53:25;;;;;;;1.23;0.50;;;;;;;;;;5084055;28;20051;-65
2022/07/15 01:55:53;;;;;;;2.97;0.50;;;;;;;;;;5077748;28;20051;-65
2022/07/15 01:58:21;;;;;;;1.55;0.50;;;;;;;;;;5083115;28;20052;-66
2022/07/15 02:00:49;;;;;;;2.30;0.50;;;;;;;;;;5088681;28;20105;-65
2022/07/15 02:03:16;;;;;;;5.35;0.75;;;;;;;;;;5085943;28;20046;-66
2022/07/15 02:05:43;;;;;;;3.17;0.60;;;;;;;;;;5074923;28;20055;-65
2022/07/15 02:08:11;;;;;;;6.55;0.70;;;;;;;;;;5078460;28;20052;-65
2022/07/15 02:10:41;;;;;;;2.05;0.38;;;;;;;;;;5090536;28;20047;-65
2022/07/15 02:13:10;;;;;;;2.75;0.70;;;;;;;;;;5081270;28;20051;-64
2022/07/15 02:15:37;;;;;;;3.47;0.50;;;;;;;;;;5080234;28;20097;-66
2022/07/15 02:18:05;;;;;;;2.55;0.60;;;;;;;;;;5076056;28;20047;-65
2022/07/15 02:20:32;;;;;;;3.25;0.50;;;;;;;;;;5084230;28;20044;-66
2022/07/15 02:23:01;;;;;;;4.68;0.60;;;;;;;;;;5078125;28;20079;-64
2022/07/15 02:25:29;;;;;;;2.97;0.50;;;;;;;;;;5077941;28;20134;-65
2022/07/15 02:27:57;;;;;;;4.45;0.40;;;;;;;;;;5085950;28;20051;-66
2022/07/15 02:30:26;;;;;;;3.03;0.52;;;;;;;;;;5072224;28;20040;-65
2022/07/15 02:32:53;;;;;;;5.70;0.50;;;;;;;;;;5085841;28;20066;-65
2022/07/15 02:35:20;;;;;;;4.63;0.60;;;;;;;;;;5080000;28;20059;-66
2022/07/15 02:37:48;;;;;;;5.13;0.50;;;;;;;;;;5079386;28;20078;-65
2022/07/15 02:40:15;;;;;;;3.03;0.60;;;;;;;;;;5086263;28;20056;-66
2022/07/15 02:42:48;;;;;;;3.53;0.60;;;;;;;;;;5077314;28;20052;-66
2022/07/15 02:45:15;;;;;;;7.05;0.88;;;;;;;;;;5077888;28;20058;-65
2022/07/15 02:47:44;;;;;;;3.42;0.55;;;;;;;;;;5078555;28;20127;-66
2022/07/15 02:50:11;;;;;;;4.13;0.68;;;;;;;;;;5081235;28;20048;-66
2022/07/15 02:52:38;;;;;;;2.90;0.47;;;;;;;;;;5079895;28;20687;-66
2022/07/15 02:55:06;;;;;;;4.15;0.60;;;;;;;;;;5075458;28;20135;-64
2022/07/15 02:57:33;;;;;;;2.78;0.50;;;;;;;;;;5075417;28;20102;-66
2022/07/15 03:00:00;;;;;;;4.13;0.57;;;;;;;;;;5081108;28;20047;-65
2022/07/15 03:02:27;;;;;;;4.78;0.60;;;;;;;;;;5079396;28;20452;-65
2022/07/15 03:04:56;;;;;;;2.20;0.40;;;;;;;;;;5075958;28;20698;-66
2022/07/15 03:07:23;;;;;;;4.00;0.40;;;;;;;;;;5081340;28;20051;-66
2022/07/15 03:09:51;;;;;;;3.35;0.50;;;;;;;;;;5084351;28;20048;-66
2022/07/15 03:12:18;;;;;;;4.22;0.60;;;;;;;;;;5091330;28;20688;-66
2022/07/15 03:14:45;;;;;;;1.92;0.47;;;;;;;;;;5074964;28;20112;-66
2022/07/15 03:17:12;;;;;;;1.85;0.40;;;;;;;;;;5078797;28;20047;-66
2022/07/15 03:19:40;;;;;;;2.90;0.63;;;;;;;;;;5081051;28;20629;-65
2022/07/15 03:22:08;;;;;;;3.17;0.60;;;;;;;;;;5079027;28;20159;-65
2022/07/15 03:24:35;;;;;;;2.25;0.88;;;;;;;;;;5077539;28;20044;-64
2022/07/15 03:27:02;;;;;;;3.30;0.50;;;;;;;;;;5078587;28;20097;-66
2022/07/15 03:29:30;;;;;;;3.42;0.35;;;;;;;;;;5076027;28;20047;-66
2022/07/15 03:31:57;;;;;;;2.67;0.70;;;;;;;;;;5078048;28;20044;-66
2022/07/15 03:34:25;;;;;;;3.50;0.40;;;;;;;;;;5078042;28;20052;-65
2022/07/15 03:36:53;;;;;;;3.42;0.63;;;;;;;;;;5084477;28;20062;-66
2022/07/15 03:39:21;;;;;;;1.60;0.30;;;;;;;;;;5083400;28;20047;-66
2022/07/15 03:41:48;;;;;;;2.97;0.70;;;;;;;;;;5080236;28;20093;-65
2022/07/15 03:44:16;;;;;;;4.07;0.40;;;;;;;;;;5084711;28;20064;-66
2022/07/15 03:46:45;;;;;;;1.67;0.60;;;;;;;;;;5089678;28;20074;-65
2022/07/15 03:49:12;;;;;;;7.68;0.68;;;;;;;;;;5076185;28;20445;-64
2022/07/15 03:51:40;;;;;;;7.93;0.70;;;;;;;;;;5077577;28;20048;-65
2022/07/15 03:54:07;;;;;;;3.13;0.43;;;;;;;;;;5086647;28;20049;-66
2022/07/15 03:56:36;;;;;;;4.45;0.70;;;;;;;;;;5088513;28;20131;-65
2022/07/15 03:59:04;;;;;;;4.03;0.55;;;;;;;;;;5080970;28;20051;-65
2022/07/15 04:01:32;;;;;;;2.42;0.50;;;;;;;;;;5080390;27;20097;-65
2022/07/15 04:03:59;;;;;;;5.78;0.60;;;;;;;;;;5092026;28;20126;-66
2022/07/15 04:06:26;;;;;;;5.13;0.70;;;;;;;;;;5077714;28;20048;-66
2022/07/15 04:08:53;;;;;;;5.18;0.73;;;;;;;;;;5086706;28;20539;-66
2022/07/15 04:11:20;;;;;;;4.65;0.70;;;;;;;;;;5078572;28;20062;-65
2022/07/15 04:13:49;;;;;;;4.57;0.60;;;;;;;;;;5090122;28;20183;-65
2022/07/15 04:16:16;;;;;;;3.85;0.75;;;;;;;;;;5082182;28;20102;-66
2022/07/15 04:18:43;;;;;;;5.03;0.55;;;;;;;;;;5080211;28;20060;-65
2022/07/15 04:21:11;;;;;;;2.10;0.40;;;;;;;;;;5070844;28;20056;-65
2022/07/15 04:23:38;;;;;;;5.78;0.55;;;;;;;;;;5081997;28;20048;-65
2022/07/15 04:26:05;;;;;;;5.80;0.70;;;;;;;;;;5077569;28;20058;-64
2022/07/15 04:28:32;;;;;;;4.15;0.70;;;;;;;;;;5078257;28;20109;-66
2022/07/15 04:31:01;;;;;;;3.72;0.88;;;;;;;;;;5081256;28;20045;-66
2022/07/15 04:33:28;;;;;;;4.13;0.70;;;;;;;;;;5081689;28;20123;-66
2022/07/15 04:35:56;;;;;;;4.30;0.60;;;;;;;;;;5072969;28;20121;-65
2022/07/15 04:38:23;;;;;;;5.70;0.60;;;;;;;;;;5075411;28;20048;-66
2022/07/15 04:40:51;;;;;;;3.72;0.50;;;;;;;;;;5076264;28;20749;-66
2022/07/15 04:43:18;;;;;;;5.28;0.70;;;;;;;;;;5074075;28;20419;-65
2022/07/15 04:45:45;;;;;;;5.20;0.82;;;;;;;;;;5075075;28;20051;-66
2022/07/15 04:50:59;;;;;;;1.67;0.52;;;;;;;;;;5078734;28;20048;-64
2022/07/15 04:53:26;;;;;;;5.38;0.70;;;;;;;;;;5072588;28;20060;-65
2022/07/15 04:55:53;;;;;;;5.00;0.63;;;;;;;;;;5082273;28;20136;-66
2022/07/15 04:58:21;;;;;;;5.25;0.70;;;;;;;;;;5073386;28;20075;-65
2022/07/15 05:00:48;;;;;;;2.67;0.60;;;;;;;;;;5075510;28;20122;-65
2022/07/15 05:03:17;;;;;;;4.50;0.70;;;;;;;;;;5071769;28;20490;-64
2022/07/15 05:05:44;;;;;;;4.80;0.80;;;;;;;;;;5079982;28;20056;-66
2022/07/15 05:08:11;;;;;;;5.35;0.75;;;;;;;;;;5082317;28;20044;-65
2022/07/15 05:10:38;;;;;;;7.43;0.70;;;;;;;;;;5080977;28;20043;-66
2022/07/15 05:13:06;;;;;;;4.80;0.60;;;;;;;;;;5081250;28;20044;-65
2022/07/15 05:15:34;;;;;;;5.05;0.80;;;;;;;;;;5082864;28;20117;-65
2022/07/15 05:18:01;;;;;;;5.25;0.95;;;;;;;;;;5076318;28;20071;-66
2022/07/15 05:20:29;;;;;;;2.78;0.50;;;;;;;;;;5076484;28;20538;-64
2022/07/15 05:22:57;;;;;;;4.40;0.98;;;;;;;;;;5079041;28;20056;-65
2022/07/15 05:25:24;;;;;;;5.10;0.60;;;;;;;;;;5075293;28;20141;-66
2022/07/15 05:27:51;;;;;;;3.88;0.60;;;;;;;;;;5085871;28;20056;-65
2022/07/15 05:30:18;;;;;;;5.20;0.70;;;;;;;;;;5077428;28;20035;-65
2022/07/15 05:32:46;;;;;;;6.38;0.77;;;;;;;;;;5076641;28;20105;-64
2022/07/15 05:35:14;;;;;;;4.47;0.70;;;;;;;;;;5081059;28;20136;-66
2022/07/15 05:37:43;;;;;;;3.08;0.60;;;;;;;;;;5079151;28;20102;-65
2022/07/15 05:40:11;;;;;;;3.20;0.50;;;;;;;;;;5084695;28;20047;-65
2022/07/15 05:42:39;;;;;;;5.82;0.70;;;;;;;;;;5080356;28;20056;-65
2022/07/15 05:45:07;;;;;;;5.13;0.60;;;;;;;;;;5086891;28;20109;-66
2022/07/15 05:47:35;;;;;;;5.10;0.70;;;;;;;;;;5086777;28;20075;-66
2022/07/15 05:50:02;;;;;;;5.10;0.80;;;;;;;;;;5074398;27;20047;-64
2022/07/15 05:52:29;;;;;;;9.40;1.05;;;;;;;;;;5081851;28;20052;-66
2022/07/15 05:54:58;;;;;;;5.03;0.70;;;;;;;;;;5079506;28;20681;-66
2022/07/15 05:57:25;;;;;;;3.47;0.52;;;;;;;;;;5078483;28;20052;-65
2022/07/15 05:59:52;;;;;;;8.07;0.95;;;;;;;;;;5079699;28;20052;-65
2022/07/15 06:02:19;;;;;;;2.38;0.57;;;;;;;;;;5081591;28;20074;-66
2022/07/15 06:04:46;;;;;;;4.30;0.57;;;;;;;;;;5082610;28;20056;-66
2022/07/15 06:07:14;;;;;;;5.15;0.80;;;;;;;;;;5080342;28;20093;-66
2022/07/15 06:09:41;;;;;;;2.67;0.60;;;;;;;;;;5080780;28;20044;-64
2022/07/15 06:12:10;;;;;;;2.45;0.57;;;;;;;;;;5076946;28;20765;-66
2022/07/15 06:14:37;;;;;;;6.72;0.80;;;;;;;;;;5079445;28;20052;-65
2022/07/15 06:17:04;;;;;;;3.50;0.50;;;;;;;;;;5077729;28;20089;-65
2022/07/15 06:19:31;;;;;;;2.65;0.50;;;;;;;;;;5075861;28;20083;-64
2022/07/15 06:21:59;;;;;;;4.20;0.57;;;;;;;;;;5069196;28;20540;-65
2022/07/15 06:24:26;;;;;;;1.92;0.70;;;;;;;;;;5079136;28;20114;-66
2022/07/15 06:26:53;;;;;;;5.82;0.60;;;;;;;;;;5082007;28;20051;-66
2022/07/15 06:29:22;;;;;;;3.55;0.47;;;;;;;;;;5085978;28;20055;-65
2022/07/15 06:31:49;;;;;;;3.90;0.50;;;;;;;;;;5077149;28;20048;-65
2022/07/15 06:34:17;;;;;;;3.00;0.55;;;;;;;;;;5077963;28;20063;-66
2022/07/15 06:36:44;;;;;;;5.28;0.70;;;;;;;;;;5073869;28;20097;-66
2022/07/15 06:39:11;;;;;;;6.25;0.77;;;;;;;;;;5079132;28;20056;-65
2022/07/15 06:41:39;;;;;;;4.05;0.63;;;;;;;;;;5073035;28;20115;-65
2022/07/15 06:44:06;;;;;;;1.80;0.50;;;;;;;;;;5077934;28;20060;-66
2022/07/15 06:46:34;;;;;;;1.75;0.55;;;;;;;;;;5074410;28;20071;-66
2022/07/15 06:49:02;;;;;;;5.15;0.90;;;;;;;;;;5080487;28;20105;-66
2022/07/15 06:51:29;;;;;;;4.15;0.50;;;;;;;;;;5075191;28;20110;-66
2022/07/15 06:53:56;;;;;;;3.00;0.52;;;;;;;;;;5075533;28;20051;-66
2022/07/15 06:56:24;;;;;;;3.00;0.50;;;;;;;;;;5076474;28;20379;-66
2022/07/15 06:58:51;;;;;;;2.80;0.47;;;;;;;;;;5065635;28;20044;-65
2022/07/15 07:01:18;;;;;;;4.00;0.80;;;;;;;;;;5070750;28;20147;-66
2022/07/15 07:03:47;;;;;;;2.10;0.50;;;;;;;;;;5081416;28;20056;-65
2022/07/15 07:06:15;;;;;;;2.22;0.65;;;;;;;;;;5075690;28;20052;-65
2022/07/15 07:08:42;;;;;;;3.13;0.47;;;;;;;;;;5068248;28;20048;-66
2022/07/15 07:11:09;;;;;;;3.35;0.40;;;;;;;;;;5067414;28;20051;-66
2022/07/15 07:13:36;;;;;;;2.65;0.50;;;;;;;;;;5079047;28;20055;-66
2022/07/15 07:16:04;;;;;;;2.13;0.40;;;;;;;;;;5071892;28;20440;-66
2022/07/15 07:18:31;;;;;;;2.58;0.80;;;;;;;;;;5071023;28;20055;-65
2022/07/15 07:21:01;;;;;;;3.13;0.60;;;;;;;;;;5069563;28;20048;-66
2022/07/15 07:23:29;;;;;;;2.92;0.60;;;;;;;;;;5069567;28;20043;-66
2022/07/15 07:25:57;;;;;;;1.95;0.40;;;;;;;;;;5075423;28;20051;-66
2022/07/15 07:28:24;;;;;;;3.25;0.40;;;;;;;;;;5070313;28;20533;-66
2022/07/15 07:30:52;;;;;;;4.32;0.90;;;;;;;;;;5072349;28;20682;-66
2022/07/15 07:33:19;;;;;;;2.00;0.50;;;;;;;;;;5072856;28;20681;-67
2022/07/15 07:35:46;;;;;;;3.95;0.50;;;;;;;;;;5077435;28;20093;-66
2022/07/15 07:38:15;;;;;;;2.70;0.43;;;;;;;;;;5067092;28;20048;-65
2022/07/15 07:40:42;;;;;;;3.50;0.60;;;;;;;;;;5080542;28;20044;-66
2022/07/15 07:43:09;;;;;;;4.40;1.00;;;;;;;;;;5080382;28;20052;-64
2022/07/15 07:45:36;;;;;;;4.10;0.70;;;;;;;;;;5076902;28;20985;-66
2022/07/15 07:48:04;;;;;;;2.75;0.60;;;;;;;;;;5071919;28;20422;-66
2022/07/15 07:50:31;;;;;;;5.70;0.68;;;;;;;;;;5072405;28;20051;-67
2022/07/15 07:52:58;;;;;;;4.18;0.50;;;;;;;;;;5072382;28;20447;-67
2022/07/15 07:55:28;;;;;;;1.95;0.47;;;;;;;;;;5074281;28;20047;-67
2022/07/15 07:57:56;;;;;;;2.65;0.47;;;;;;;;;;5070494;28;20056;-65
2022/07/15 08:00:26;;;;;;;2.90;0.60;;;;;;;;;;5081213;28;20530;-66
2022/07/15 08:02:53;;;;;;;4.22;0.57;;;;;;;;;;5079194;28;20048;-67
2022/07/15 08:05:21;;;;;;;4.03;0.65;;;;;;;;;;5081696;28;20048;-64
2022/07/15 08:07:48;;;;;;;2.03;0.50;;;;;;;;;;5083044;28;20036;-65
2022/07/15 08:10:16;;;;;;;3.45;0.52;;;;;;;;;;5082366;28;20048;-66
2022/07/15 08:12:45;;;;;;;2.45;0.50;;;;;;;;;;5079883;28;20387;-66
2022/07/15 08:15:15;;;;;;;2.78;0.60;;;;;;;;;;5078489;28;20059;-67
2022/07/15 08:17:42;;;;;;;6.00;0.63;;;;;;;;;;5077389;28;20063;-65
2022/07/15 08:20:10;;;;;;;2.13;0.55;;;;;;;;;;5080133;28;20426;-65
2022/07/15 08:22:38;;;;;;;2.60;0.68;;;;;;;;;;5079858;28;20067;-66
2022/07/15 08:25:06;;;;;;;2.60;0.50;;;;;;;;;;5082444;28;20047;-65
2022/07/15 08:27:33;;;;;;;1.67;0.47;;;;;;;;;;5079903;28;20135;-66
2022/07/15 08:30:02;;;;;;;2.13;0.43;;;;;;;;;;5081891;28;20040;-65
2022/07/15 08:32:29;;;;;;;4.30;0.55;;;;;;;;;;5076094;28;20079;-66
2022/07/15 08:34:57;;;;;;;6.28;0.63;;;;;;;;;;5081970;28;20044;-67
2022/07/15 08:37:26;;;;;;;3.03;0.60;;;;;;;;;;5077123;28;20048;-67
2022/07/15 08:39:54;;;;;;;3.05;0.60;;;;;;;;;;5088312;28;20057;-67
2022/07/15 08:42:21;;;;;;;4.07;0.70;;;;;;;;;;5082897;28;20055;-66
2022/07/15 08:44:48;;;;;;;2.22;0.40;;;;;;;;;;5089538;28;20054;-67
2022/07/15 08:47:17;;;;;;;1.50;0.43;;;;;;;;;;5079931;28;20052;-67
2022/07/15 08:49:46;;;;;;;1.48;0.43;;;;;;;;;;5085917;28;20048;-66
2022/07/15 08:52:13;;;;;;;0.80;0.30;;;;;;;;;;5077818;28;20079;-67
2022/07/15 08:54:40;;;;;;;3.78;0.60;;;;;;;;;;5081294;28;20040;-66
2022/07/15 08:57:07;;;;;;;1.60;0.43;;;;;;;;;;5078562;28;20056;-67
2022/07/15 08:59:35;;;;;;;3.75;0.50;;;;;;;;;;5071622;28;20052;-67
2022/07/15 09:02:02;;;;;;;3.33;0.57;;;;;;;;;;5082056;28;20123;-66
2022/07/15 09:04:30;;;;;;;2.47;0.40;;;;;;;;;;5082946;28;21037;-65
2022/07/15 09:07:03;;;;;;;1.73;0.30;;;;;;;;;;5081773;28;20055;-66
2022/07/15 09:09:31;;;;;;;2.33;0.57;;;;;;;;;;5078192;28;20149;-66
2022/07/15 09:12:02;;;;;;;2.30;0.73;;;;;;;;;;5082560;28;20074;-66
2022/07/15 09:14:30;;;;;;;2.00;0.40;;;;;;;;;;5075263;28;20048;-67
2022/07/15 09:17:07;;;;;;;2.35;0.40;;;;;;;;;;5081530;28;20526;-67
2022/07/15 09:19:49;;;;;;;4.90;0.40;;;;;;;;;;5078056;28;20062;-67
2022/07/15 09:22:19;;;;;;;2.20;0.63;;;;;;;;;;5089060;28;20047;-66
2022/07/15 09:24:46;;;;;;;1.60;0.40;;;;;;;;;;5089220;28;20088;-66
2022/07/15 09:27:28;;;;;;;3.55;0.40;;;;;;;;;;5081090;28;20106;-65
2022/07/15 09:38:14;;;;;;;2.00;0.70;;;;;;;;;;5072548;28;20059;-66
2022/07/15 09:40:48;;;;;;;3.42;0.70;;;;;;;;;;5075864;28;20665;-66
2022/07/15 09:43:16;;;;;;;3.97;0.70;;;;;;;;;;5076813;28;20490;-66
2022/07/15 09:45:43;;;;;;;1.85;0.50;;;;;;;;;;5082072;28;20048;-66
2022/07/15 09:48:12;;;;;;;3.72;0.60;;;;;;;;;;5084822;28;20048;-67
2022/07/15 09:50:39;;;;;;;2.88;0.63;;;;;;;;;;5083932;28;20121;-67
2022/07/15 09:53:11;;;;;;;1.45;0.50;;;;;;;;;;5081096;28;20062;-67
2022/07/15 09:55:40;;;;;;;3.45;0.50;;;;;;;;;;5076996;28;20048;-67
2022/07/15 09:58:08;;;;;;;4.72;0.85;;;;;;;;;;5076431;28;20036;-66
2022/07/15 10:00:35;;;;;;;3.72;0.80;;;;;;;;;;5082113;28;20059;-66
2022/07/15 10:03:02;;;;;;;2.80;0.88;;;;;;;;;;5076825;28;20093;-67
2022/07/15 10:05:30;;;;;;;1.95;0.68;;;;;;;;;;5081260;28;20070;-67
2022/07/15 10:07:59;;;;;;;4.88;0.90;;;;;;;;;;5084559;28;20047;-67
2022/07/15 10:10:26;;;;;;;1.90;0.73;;;;;;;;;;5085425;28;20109;-66
2022/07/15 10:13:00;;;;;;;4.13;0.60;;;;;;;;;;5077320;28;20048;-67
2022/07/15 10:15:31;;;;;;;3.67;0.60;;;;;;;;;;5080683;28;20044;-68
2022/07/15 10:18:13;;;;;;;2.78;0.65;;;;;;;;;;5082496;28;20056;-67
2022/07/15 10:20:49;;;;;;;3.45;0.70;;;;;;;;;;5080798;28;20040;-67
2022/07/15 10:23:26;;;;;;;2.85;0.70;;;;;;;;;;5080485;28;20055;-67
2022/07/15 10:26:01;;;;;;;5.38;0.80;;;;;;;;;;5080761;28;20056;-67
2022/07/15 10:28:43;;;;;;;3.97;0.73;;;;;;;;;;5081779;28;20067;-67
2022/07/15 10:31:14;;;;;;;2.58;0.50;;;;;;;;;;5081975;28;20127;-66
2022/07/15 10:33:41;;;;;;;3.00;0.70;;;;;;;;;;5077031;28;20361;-66
2022/07/15 10:36:09;;;;;;;1.98;0.60;;;;;;;;;;5080245;28;21193;-67
2022/07/15 10:38:37;;;;;;;4.88;0.70;;;;;;;;;;5080627;28;20043;-67
2022/07/15 10:41:06;;;;;;;3.22;0.70;;;;;;;;;;5080592;28;20036;-65
2022/07/15 10:43:41;;;;;;;5.25;0.80;;;;;;;;;;5078226;28;20048;-66
2022/07/15 10:46:19;;;;;;;1.48;0.70;;;;;;;;;;5078579;28;20844;-66
2022/07/15 10:48:46;;;;;;;2.50;0.80;;;;;;;;;;5082817;28;20446;-66
2022/07/15 10:51:14;;;;;;;3.15;1.13;;;;;;;;;;5078242;28;20052;-66
2022/07/15 10:53:44;;;;;;;4.53;0.75;;;;;;;;;;5076706;28;20418;-68
2022/07/15 10:56:26;;;;;;;2.75;0.80;;;;;;;;;;5072028;28;20082;-68
2022/07/15 11:01:50;;;;;;;3.22;1.00;;;;;;;;;;5113850;27;20104;-67
2022/07/15 11:04:18;;;;;;;3.65;0.90;;;;;;;;;;5113504;28;20054;-66
2022/07/15 11:07:07;;;;;;;2.38;0.80;;;;;;;;;;5095673;28;20081;-65
2022/07/15 11:09:45;;;;;;;3.08;0.90;;;;;;;;;;5097357;28;20055;-67
2022/07/15 11:12:12;;;;;;;3.33;1.10;;;;;;;;;;5109832;28;20051;-66
2022/07/15 11:14:44;;;;;;;4.88;0.80;;;;;;;;;;5117038;28;20130;-67
2022/07/15 11:17:13;;;;;;;3.30;0.90;;;;;;;;;;5113117;28;20051;-67
2022/07/15 11:19:40;;;;;;;5.03;1.15;;;;;;;;;;5116014;28;20054;-65
2022/07/15 11:22:10;;;;;;;3.25;0.90;;;;;;;;;;5116844;28;20048;-67
2022/07/15 11:24:37;;;;;;;5.65;0.70;;;;;;;;;;5101566;28;20109;-66
2022/07/15 11:27:04;;;;;;;3.22;0.68;;;;;;;;;;5091600;28;20047;-67
2022/07/15 11:29:42;;;;;;;4.05;0.90;;;;;;;;;;5098327;28;20043;-67
2022/07/15 11:32:09;;;;;;;2.45;0.85;;;;;;;;;;5093588;28;20062;-67
2022/07/15 11:34:42;;;;;;;2.28;0.73;;;;;;;;;;5092339;28;20075;-67
2022/07/15 11:37:10;;;;;;;4.72;0.85;;;;;;;;;;5093617;28;20567;-67
2022/07/15 11:39:38;;;;;;;4.95;1.17;;;;;;;;;;5096165;28;20047;-66
2022/07/15 11:44:50;;;;;;;3.92;1.10;;;;;;;;;;5092262;28;20051;-67
2022/07/15 11:47:18;;;;;;;3.97;0.90;;;;;;;;;;5097089;28;20444;-65
2022/07/15 11:49:47;;;;;;;5.85;0.88;;;;;;;;;;5096004;28;20048;-67
2022/07/15 11:52:22;;;;;;;5.70;1.00;;;;;;;;;;5096837;28;20048;-67
2022/07/15 11:54:50;;;;;;;3.25;0.80;;;;;;;;;;5089825;28;20113;-66
2022/07/15 11:57:18;;;;;;;3.85;1.02;;;;;;;;;;5092424;28;20044;-67
2022/07/15 11:59:52;;;;;;;5.10;1.10;;;;;;;;;;5097719;28;20040;-66
2022/07/15 12:02:19;;;;;;;3.08;0.80;;;;;;;;;;5095587;28;20109;-66
2022/07/15 12:04:47;;;;;;;5.18;1.00;;;;;;;;;;5077087;28;20132;-66
2022/07/15 12:07:15;;;;;;;2.65;0.70;;;;;;;;;;5094794;28;20108;-67
2022/07/15 12:09:42;;;;;;;3.67;1.02;;;;;;;;;;5096625;28;20580;-66
2022/07/15 12:12:10;;;;;;;4.00;1.13;;;;;;;;;;5086667;28;20506;-67
2022/07/15 12:14:37;;;;;;;3.78;1.10;;;;;;;;;;5063650;28;20070;-67
2022/07/15 12:17:05;;;;;;;3.58;0.75;;;;;;;;;;5082503;28;20130;-66
2022/07/15 12:19:33;;;;;;;2.92;0.90;;;;;;;;;;5079176;28;20043;-66
2022/07/15 12:22:05;;;;;;;7.35;1.05;;;;;;;;;;5083552;28;20798;-66
2022/07/15 12:24:37;;;;;;;6.00;0.90;;;;;;;;;;5076051;28;20048;-66
2022/07/15 12:27:05;;;;;;;3.83;1.13;;;;;;;;;;5065596;28;20058;-67
2022/07/15 12:29:33;;;;;;;2.75;0.82;;;;;;;;;;5080010;28;20094;-66
2022/07/15 12:32:02;;;;;;;5.38;1.00;;;;;;;;;;5081858;28;20081;-67
2022/07/15 12:34:44;;;;;;;3.53;0.90;;;;;;;;;;5083341;28;20055;-65
2022/07/15 12:37:13;;;;;;;2.17;0.90;;;;;;;;;;5072775;28;20044;-67
2022/07/15 12:39:54;;;;;;;4.65;1.05;;;;;;;;;;5061063;28;20059;-67
2022/07/15 12:42:22;;;;;;;3.08;0.82;;;;;;;;;;5078558;28;20055;-67
2022/07/15 12:45:04;;;;;;;4.80;1.15;;;;;;;;;;5086074;28;20056;-64
2022/07/15 12:47:31;;;;;;;4.95;0.98;;;;;;;;;;5077990;28;20040;-66
2022/07/15 12:50:00;;;;;;;5.50;1.25;;;;;;;;;;5080533;28;20126;-67
2022/07/15 12:52:33;;;;;;;2.45;1.15;;;;;;;;;;5077850;28;20044;-67
2022/07/15 12:55:02;;;;;;;4.32;1.00;;;;;;;;;;5083526;28;20049;-68
2022/07/15 12:57:31;;;;;;;4.35;0.98;;;;;;;;;;5077688;28;20056;-67
2022/07/15 13:00:00;;;;;;;2.60;0.90;;;;;;;;;;5081789;28;20339;-67
2022/07/15 13:02:27;;;;;;;5.80;1.10;;;;;;;;;;5078397;28;20048;-66
2022/07/15 13:04:54;;;;;;;5.85;1.27;;;;;;;;;;5083074;28;21267;-67
2022/07/15 13:07:21;;;;;;;5.40;1.50;;;;;;;;;;5063049;28;20063;-67
2022/07/15 13:09:50;;;;;;;4.47;1.30;;;;;;;;;;5058988;28;20063;-67
2022/07/15 13:12:17;;;;;;;1.95;1.00;;;;;;;;;;5064534;28;20101;-66
2022/07/15 13:14:45;;;;;;;4.50;1.10;;;;;;;;;;5079867;28;20044;-67
2022/07/15 13:17:12;;;;;;;3.65;1.30;;;;;;;;;;5081964;28;20048;-67
2022/07/15 13:19:39;;;;;;;1.92;0.98;;;;;;;;;;5081937;28;20079;-65
2022/07/15 13:22:07;;;;;;;3.85;1.30;;;;;;;;;;5067801;28;20111;-67
2022/07/15 13:24:34;;;;;;;5.50;1.40;;;;;;;;;;5076302;28;20048;-65
2022/07/15 13:27:02;;;;;;;4.47;1.10;;;;;;;;;;5078657;28;20049;-67
2022/07/15 13:29:30;;;;;;;6.15;1.00;;;;;;;;;;5058700;28;20074;-67
2022/07/15 13:31:57;;;;;;;6.10;1.23;;;;;;;;;;5081256;28;20040;-68
2022/07/15 13:34:24;;;;;;;3.53;1.20;;;;;;;;;;5081674;28;20783;-66
2022/07/15 13:36:51;;;;;;;5.82;1.48;;;;;;;;;;5077705;28;20050;-67
2022/07/15 13:39:18;;;;;;;3.30;1.30;;;;;;;;;;5080407;28;20052;-66
2022/07/15 13:41:46;;;;;;;3.90;1.10;;;;;;;;;;5081610;28;20068;-67
2022/07/15 13:44:15;;;;;;;3.90;1.10;;;;;;;;;;5078941;28;20097;-67
2022/07/15 13:46:42;;;;;;;7.35;1.20;;;;;;;;;;5074893;28;20044;-68
2022/07/15 13:49:09;;;;;;;4.15;0.90;;;;;;;;;;5074711;28;20044;-65
2022/07/15 13:51:40;;;;;;;2.90;1.00;;;;;;;;;;5055669;28;20044;-67
2022/07/15 13:54:07;;;;;;;4.60;1.10;;;;;;;;;;5079766;28;20063;-67
2022/07/15 13:56:34;;;;;;;7.43;1.30;;;;;;;;;;5073665;28;20048;-65
2022/07/15 13:59:02;;;;;;;3.58;1.00;;;;;;;;;;5076581;28;20044;-67
2022/07/15 14:01:31;;;;;;;2.67;1.00;;;;;;;;;;5079349;28;20048;-67
2022/07/15 14:03:59;;;;;;;5.00;1.30;;;;;;;;;;5076770;28;20086;-67
2022/07/15 14:06:26;;;;;;;5.10;1.30;;;;;;;;;;5081647;28;20628;-67
2022/07/15 14:08:54;;;;;;;10.80;1.75;;;;;;;;;;5078400;28;20056;-68
2022/07/15 14:11:21;;;;;;;4.88;1.33;;;;;;;;;;5077599;28;20139;-67
2022/07/15 14:13:48;;;;;;;5.10;1.23;;;;;;;;;;5076466;28;21583;-67
2022/07/15 14:16:15;;;;;;;3.35;1.10;;;;;;;;;;5077790;28;20059;-67
2022/07/15 14:18:45;;;;;;;7.15;1.75;;;;;;;;;;5057110;28;20060;-66
2022/07/15 14:21:13;;;;;;;5.43;1.30;;;;;;;;;;5079250;28;20044;-66
2022/07/15 14:23:40;;;;;;;3.92;1.20;;;;;;;;;;5080730;28;20620;-67
2022/07/15 14:26:07;;;;;;;5.28;1.48;;;;;;;;;;5075926;28;20048;-66
2022/07/15 14:28:35;;;;;;;4.47;1.10;;;;;;;;;;5082012;28;20060;-66
2022/07/15 14:31:02;;;;;;;6.72;1.40;;;;;;;;;;5072362;28;20040;-67
2022/07/15 14:33:29;;;;;;;3.45;1.30;;;;;;;;;;5081140;28;20573;-66
2022/07/15 14:35:58;;;;;;;7.07;1.38;;;;;;;;;;5058667;28;20052;-67
2022/07/15 14:38:25;;;;;;;5.25;1.38;;;;;;;;;;5081293;28;20594;-65
2022/07/15 14:40:52;;;;;;;4.55;1.13;;;;;;;;;;5076842;28;20098;-70
2022/07/15 14:43:19;;;;;;;5.57;1.25;;;;;;;;;;5081744;28;20047;-66
2022/07/15 14:45:47;;;;;;;4.18;1.20;;;;;;;;;;5079133;28;20059;-65
2022/07/15 14:48:14;;;;;;;6.15;1.27;;;;;;;;;;5076191;28;20514;-66
2022/07/15 14:50:41;;;;;;;5.35;1.20;;;;;;;;;;5070571;28;20055;-67
2022/07/15 14:53:10;;;;;;;4.45;1.15;;;;;;;;;;5080078;28;20059;-66
2022/07/15 14:55:37;;;;;;;3.83;1.25;;;;;;;;;;5073520;28;20059;-66
2022/07/15 14:58:05;;;;;;;6.05;1.35;;;;;;;;;;5064805;28;20040;-66
2022/07/15 15:00:32;;;;;;;4.32;1.38;;;;;;;;;;5073888;28;20053;-67
2022/07/15 15:02:59;;;;;;;4.90;1.60;;;;;;;;;;5076282;28;20048;-65
2022/07/15 15:05:26;;;;;;;6.82;1.35;;;;;;;;;;5057438;28;20063;-67
2022/07/15 15:07:54;;;;;;;7.47;1.88;;;;;;;;;;5079490;28;20071;-66
2022/07/15 15:10:23;;;;;;;10.00;2.22;;;;;;;;;;5061880;28;20063;-65
2022/07/15 15:12:50;;;;;;;5.85;2.35;;;;;;;;;;5061496;28;20052;-66